sensor_id;sensor_type;location;lat;lon;timestamp;P1;durP1;ratioP1;P2;durP2;ratioP2
38302;SDS011;24103;42.454;27.400;2023-04-30T00:00:50;0.40;;;0.40;;
38302;SDS011;24103;42.454;27.400;2023-04-30T00:03:16;0.38;;;0.38;;
38302;SDS011;24103;42.454;27.400;2023-04-30T00:05:41;0.40;;;0.40;;
38302;SDS011;24103;42.454;27.400;2023-04-30T00:08:07;0.40;;;0.40;;
38302;SDS011;24103;42.454;27.400;2023-04-30T00:10:32;0.40;;;0.40;;
38302;SDS011;24103;42.454;27.400;2023-04-30T00:12:58;0.32;;;0.32;;
38302;SDS011;24103;42.454;27.400;2023-04-30T00:15:23;0.40;;;0.40;;
38302;SDS011;24103;42.454;27.400;2023-04-30T00:17:49;0.30;;;0.30;;
38302;SDS011;24103;42.454;27.400;2023-04-30T00:20:14;0.30;;;0.30;;
38302;SDS011;24103;42.454;27.400;2023-04-30T00:22:40;0.43;;;0.43;;
38302;SDS011;24103;42.454;27.400;2023-04-30T00:25:06;0.30;;;0.30;;
38302;SDS011;24103;42.454;27.400;2023-04-30T00:27:31;0.25;;;0.25;;
38302;SDS011;24103;42.454;27.400;2023-04-30T00:29:57;0.40;;;0.40;;
38302;SDS011;24103;42.454;27.400;2023-04-30T00:32:23;0.30;;;0.30;;
38302;SDS011;24103;42.454;27.400;2023-04-30T00:34:48;0.40;;;0.40;;
38302;SDS011;24103;42.454;27.400;2023-04-30T00:37:14;0.35;;;0.35;;
38302;SDS011;24103;42.454;27.400;2023-04-30T00:39:39;0.30;;;0.30;;
38302;SDS011;24103;42.454;27.400;2023-04-30T00:42:05;0.38;;;0.38;;
38302;SDS011;24103;42.454;27.400;2023-04-30T00:44:31;0.30;;;0.30;;
38302;SDS011;24103;42.454;27.400;2023-04-30T00:46:56;0.40;;;0.40;;
38302;SDS011;24103;42.454;27.400;2023-04-30T00:49:22;0.30;;;0.30;;
38302;SDS011;24103;42.454;27.400;2023-04-30T00:51:47;0.40;;;0.40;;
38302;SDS011;24103;42.454;27.400;2023-04-30T00:54:13;0.30;;;0.30;;
38302;SDS011;24103;42.454;27.400;2023-04-30T00:56:39;0.30;;;0.30;;
38302;SDS011;24103;42.454;27.400;2023-04-30T00:59:05;0.50;;;0.50;;
38302;SDS011;24103;42.454;27.400;2023-04-30T01:01:31;0.30;;;0.30;;
38302;SDS011;24103;42.454;27.400;2023-04-30T01:03:57;0.30;;;0.30;;
38302;SDS011;24103;42.454;27.400;2023-04-30T01:06:23;0.25;;;0.25;;
38302;SDS011;24103;42.454;27.400;2023-04-30T01:08:50;0.38;;;0.38;;
38302;SDS011;24103;42.454;27.400;2023-04-30T01:14:07;0.30;;;0.30;;
38302;SDS011;24103;42.454;27.400;2023-04-30T01:16:39;0.30;;;0.30;;
38302;SDS011;24103;42.454;27.400;2023-04-30T01:21:55;0.30;;;0.30;;
38302;SDS011;24103;42.454;27.400;2023-04-30T01:27:24;0.40;;;0.40;;
38302;SDS011;24103;42.454;27.400;2023-04-30T01:29:56;0.40;;;0.40;;
38302;SDS011;24103;42.454;27.400;2023-04-30T01:32:23;0.30;;;0.30;;
38302;SDS011;24103;42.454;27.400;2023-04-30T01:34:48;0.40;;;0.40;;
38302;SDS011;24103;42.454;27.400;2023-04-30T01:40:20;0.40;;;0.40;;
38302;SDS011;24103;42.454;27.400;2023-04-30T01:51:07;0.30;;;0.30;;
38302;SDS011;24103;42.454;27.400;2023-04-30T01:53:40;0.47;;;0.47;;
38302;SDS011;24103;42.454;27.400;2023-04-30T01:56:08;0.40;;;0.40;;
38302;SDS011;24103;42.454;27.400;2023-04-30T01:58:36;0.30;;;0.30;;
38302;SDS011;24103;42.454;27.400;2023-04-30T02:01:02;0.45;;;0.45;;
38302;SDS011;24103;42.454;27.400;2023-04-30T02:03:28;0.30;;;0.30;;
38302;SDS011;24103;42.454;27.400;2023-04-30T02:05:53;0.40;;;0.40;;
38302;SDS011;24103;42.454;27.400;2023-04-30T02:08:19;0.40;;;0.40;;
38302;SDS011;24103;42.454;27.400;2023-04-30T02:10:45;0.40;;;0.40;;
38302;SDS011;24103;42.454;27.400;2023-04-30T02:13:10;0.30;;;0.30;;
38302;SDS011;24103;42.454;27.400;2023-04-30T02:15:36;0.40;;;0.40;;
38302;SDS011;24103;42.454;27.400;2023-04-30T02:18:01;0.40;;;0.40;;
38302;SDS011;24103;42.454;27.400;2023-04-30T02:20:27;0.30;;;0.30;;
38302;SDS011;24103;42.454;27.400;2023-04-30T02:22:54;0.40;;;0.40;;
38302;SDS011;24103;42.454;27.400;2023-04-30T02:25:20;0.32;;;0.32;;
38302;SDS011;24103;42.454;27.400;2023-04-30T02:27:45;0.30;;;0.30;;
38302;SDS011;24103;42.454;27.400;2023-04-30T02:30:11;0.40;;;0.40;;
38302;SDS011;24103;42.454;27.400;2023-04-30T02:32:36;0.35;;;0.35;;
38302;SDS011;24103;42.454;27.400;2023-04-30T02:35:02;0.47;;;0.47;;
38302;SDS011;24103;42.454;27.400;2023-04-30T02:37:27;0.32;;;0.32;;
38302;SDS011;24103;42.454;27.400;2023-04-30T02:39:53;0.25;;;0.25;;
38302;SDS011;24103;42.454;27.400;2023-04-30T02:42:18;0.30;;;0.30;;
38302;SDS011;24103;42.454;27.400;2023-04-30T02:44:44;0.40;;;0.40;;
38302;SDS011;24103;42.454;27.400;2023-04-30T02:47:09;0.40;;;0.40;;
38302;SDS011;24103;42.454;27.400;2023-04-30T02:49:35;0.30;;;0.30;;
38302;SDS011;24103;42.454;27.400;2023-04-30T02:52:00;0.30;;;0.30;;
38302;SDS011;24103;42.454;27.400;2023-04-30T02:54:26;0.30;;;0.30;;
38302;SDS011;24103;42.454;27.400;2023-04-30T02:56:51;0.40;;;0.40;;
38302;SDS011;24103;42.454;27.400;2023-04-30T02:59:17;0.30;;;0.30;;
38302;SDS011;24103;42.454;27.400;2023-04-30T03:01:43;0.30;;;0.30;;
38302;SDS011;24103;42.454;27.400;2023-04-30T03:04:08;0.40;;;0.40;;
38302;SDS011;24103;42.454;27.400;2023-04-30T03:06:34;0.40;;;0.40;;
38302;SDS011;24103;42.454;27.400;2023-04-30T03:08:59;0.40;;;0.40;;
38302;SDS011;24103;42.454;27.400;2023-04-30T03:11:25;0.40;;;0.40;;
38302;SDS011;24103;42.454;27.400;2023-04-30T03:13:51;0.50;;;0.50;;
38302;SDS011;24103;42.454;27.400;2023-04-30T03:16:17;0.35;;;0.35;;
38302;SDS011;24103;42.454;27.400;2023-04-30T03:18:44;0.30;;;0.30;;
38302;SDS011;24103;42.454;27.400;2023-04-30T03:21:10;0.30;;;0.30;;
38302;SDS011;24103;42.454;27.400;2023-04-30T03:23:35;0.30;;;0.30;;
38302;SDS011;24103;42.454;27.400;2023-04-30T03:26:01;0.30;;;0.30;;
38302;SDS011;24103;42.454;27.400;2023-04-30T03:28:26;0.40;;;0.40;;
38302;SDS011;24103;42.454;27.400;2023-04-30T03:30:52;0.30;;;0.30;;
38302;SDS011;24103;42.454;27.400;2023-04-30T03:33:17;0.30;;;0.30;;
38302;SDS011;24103;42.454;27.400;2023-04-30T03:35:43;0.30;;;0.30;;
38302;SDS011;24103;42.454;27.400;2023-04-30T03:38:08;0.30;;;0.30;;
38302;SDS011;24103;42.454;27.400;2023-04-30T03:40:34;0.30;;;0.30;;
38302;SDS011;24103;42.454;27.400;2023-04-30T03:42:59;0.30;;;0.30;;
38302;SDS011;24103;42.454;27.400;2023-04-30T03:45:25;0.30;;;0.30;;
38302;SDS011;24103;42.454;27.400;2023-04-30T03:47:50;0.20;;;0.20;;
38302;SDS011;24103;42.454;27.400;2023-04-30T03:50:16;0.20;;;0.20;;
38302;SDS011;24103;42.454;27.400;2023-04-30T03:52:42;0.40;;;0.40;;
38302;SDS011;24103;42.454;27.400;2023-04-30T03:55:08;0.20;;;0.20;;
38302;SDS011;24103;42.454;27.400;2023-04-30T03:57:34;0.20;;;0.20;;
38302;SDS011;24103;42.454;27.400;2023-04-30T04:00:00;0.20;;;0.20;;
38302;SDS011;24103;42.454;27.400;2023-04-30T04:02:31;0.20;;;0.20;;
38302;SDS011;24103;42.454;27.400;2023-04-30T04:04:57;0.20;;;0.20;;
38302;SDS011;24103;42.454;27.400;2023-04-30T04:07:23;0.20;;;0.20;;
38302;SDS011;24103;42.454;27.400;2023-04-30T04:09:48;0.20;;;0.20;;
38302;SDS011;24103;42.454;27.400;2023-04-30T04:12:14;0.20;;;0.20;;
38302;SDS011;24103;42.454;27.400;2023-04-30T04:14:39;0.35;;;0.20;;
38302;SDS011;24103;42.454;27.400;2023-04-30T04:17:04;0.43;;;0.30;;
38302;SDS011;24103;42.454;27.400;2023-04-30T04:19:30;0.38;;;0.38;;
38302;SDS011;24103;42.454;27.400;2023-04-30T04:21:55;0.82;;;0.30;;
38302;SDS011;24103;42.454;27.400;2023-04-30T04:24:23;0.10;;;0.10;;
38302;SDS011;24103;42.454;27.400;2023-04-30T04:26:49;0.10;;;0.10;;
38302;SDS011;24103;42.454;27.400;2023-04-30T04:29:15;0.10;;;0.10;;
38302;SDS011;24103;42.454;27.400;2023-04-30T04:31:40;0.15;;;0.15;;
38302;SDS011;24103;42.454;27.400;2023-04-30T04:34:06;0.10;;;0.10;;
38302;SDS011;24103;42.454;27.400;2023-04-30T04:36:32;0.10;;;0.10;;
38302;SDS011;24103;42.454;27.400;2023-04-30T04:38:58;0.10;;;0.10;;
38302;SDS011;24103;42.454;27.400;2023-04-30T04:41:28;0.10;;;0.10;;
38302;SDS011;24103;42.454;27.400;2023-04-30T04:43:54;0.10;;;0.10;;
38302;SDS011;24103;42.454;27.400;2023-04-30T04:46:21;0.10;;;0.10;;
38302;SDS011;24103;42.454;27.400;2023-04-30T04:48:47;0.25;;;0.20;;
38302;SDS011;24103;42.454;27.400;2023-04-30T04:51:13;0.10;;;0.10;;
38302;SDS011;24103;42.454;27.400;2023-04-30T04:53:38;0.03;;;0.03;;
38302;SDS011;24103;42.454;27.400;2023-04-30T04:56:04;0.10;;;0.10;;
38302;SDS011;24103;42.454;27.400;2023-04-30T04:58:31;0.00;;;0.00;;
38302;SDS011;24103;42.454;27.400;2023-04-30T05:00:57;0.00;;;0.00;;
38302;SDS011;24103;42.454;27.400;2023-04-30T05:03:24;0.10;;;0.10;;
38302;SDS011;24103;42.454;27.400;2023-04-30T05:05:50;0.10;;;0.10;;
38302;SDS011;24103;42.454;27.400;2023-04-30T05:08:16;0.63;;;0.10;;
38302;SDS011;24103;42.454;27.400;2023-04-30T05:10:41;0.10;;;0.10;;
38302;SDS011;24103;42.454;27.400;2023-04-30T05:13:07;0.10;;;0.10;;
38302;SDS011;24103;42.454;27.400;2023-04-30T05:15:32;0.10;;;0.10;;
38302;SDS011;24103;42.454;27.400;2023-04-30T05:17:58;0.08;;;0.08;;
38302;SDS011;24103;42.454;27.400;2023-04-30T05:20:23;0.10;;;0.10;;
38302;SDS011;24103;42.454;27.400;2023-04-30T05:22:49;0.20;;;0.10;;
38302;SDS011;24103;42.454;27.400;2023-04-30T05:25:14;0.30;;;0.10;;
38302;SDS011;24103;42.454;27.400;2023-04-30T05:27:40;0.10;;;0.10;;
38302;SDS011;24103;42.454;27.400;2023-04-30T05:30:06;0.10;;;0.10;;
38302;SDS011;24103;42.454;27.400;2023-04-30T05:32:33;0.00;;;0.00;;
38302;SDS011;24103;42.454;27.400;2023-04-30T05:34:58;0.10;;;0.10;;
38302;SDS011;24103;42.454;27.400;2023-04-30T05:37:24;0.00;;;0.00;;
38302;SDS011;24103;42.454;27.400;2023-04-30T05:39:50;0.00;;;0.00;;
38302;SDS011;24103;42.454;27.400;2023-04-30T05:42:17;0.00;;;0.00;;
38302;SDS011;24103;42.454;27.400;2023-04-30T05:44:43;0.05;;;0.05;;
38302;SDS011;24103;42.454;27.400;2023-04-30T05:47:09;0.00;;;0.00;;
38302;SDS011;24103;42.454;27.400;2023-04-30T05:49:34;0.00;;;0.00;;
38302;SDS011;24103;42.454;27.400;2023-04-30T05:52:00;0.30;;;0.10;;
38302;SDS011;24103;42.454;27.400;2023-04-30T05:54:27;0.10;;;0.10;;
38302;SDS011;24103;42.454;27.400;2023-04-30T05:56:53;0.10;;;0.10;;
38302;SDS011;24103;42.454;27.400;2023-04-30T05:59:19;0.00;;;0.00;;
38302;SDS011;24103;42.454;27.400;2023-04-30T06:01:44;0.00;;;0.00;;
38302;SDS011;24103;42.454;27.400;2023-04-30T06:04:10;0.35;;;0.00;;
38302;SDS011;24103;42.454;27.400;2023-04-30T06:06:35;0.03;;;0.00;;
38302;SDS011;24103;42.454;27.400;2023-04-30T06:09:01;0.40;;;0.10;;
38302;SDS011;24103;42.454;27.400;2023-04-30T06:11:28;0.10;;;0.10;;
38302;SDS011;24103;42.454;27.400;2023-04-30T06:13:54;0.00;;;0.00;;
38302;SDS011;24103;42.454;27.400;2023-04-30T06:16:19;0.05;;;0.05;;
38302;SDS011;24103;42.454;27.400;2023-04-30T06:18:45;0.00;;;0.00;;
38302;SDS011;24103;42.454;27.400;2023-04-30T06:21:11;0.00;;;0.00;;
38302;SDS011;24103;42.454;27.400;2023-04-30T06:23:36;0.00;;;0.00;;
38302;SDS011;24103;42.454;27.400;2023-04-30T06:26:02;0.10;;;0.03;;
38302;SDS011;24103;42.454;27.400;2023-04-30T06:28:27;0.00;;;0.00;;
38302;SDS011;24103;42.454;27.400;2023-04-30T06:30:53;0.00;;;0.00;;
38302;SDS011;24103;42.454;27.400;2023-04-30T06:33:19;0.20;;;0.10;;
38302;SDS011;24103;42.454;27.400;2023-04-30T06:35:45;0.10;;;0.10;;
38302;SDS011;24103;42.454;27.400;2023-04-30T06:38:11;0.00;;;0.00;;
38302;SDS011;24103;42.454;27.400;2023-04-30T06:40:37;0.00;;;0.00;;
38302;SDS011;24103;42.454;27.400;2023-04-30T06:43:03;0.00;;;0.00;;
38302;SDS011;24103;42.454;27.400;2023-04-30T06:45:29;0.00;;;0.00;;
38302;SDS011;24103;42.454;27.400;2023-04-30T06:47:55;0.10;;;0.08;;
38302;SDS011;24103;42.454;27.400;2023-04-30T06:50:20;0.08;;;0.08;;
38302;SDS011;24103;42.454;27.400;2023-04-30T06:52:46;0.10;;;0.05;;
38302;SDS011;24103;42.454;27.400;2023-04-30T06:55:11;0.03;;;0.00;;
38302;SDS011;24103;42.454;27.400;2023-04-30T06:57:37;0.00;;;0.00;;
38302;SDS011;24103;42.454;27.400;2023-04-30T07:00:06;0.00;;;0.00;;
38302;SDS011;24103;42.454;27.400;2023-04-30T07:02:32;0.10;;;0.10;;
38302;SDS011;24103;42.454;27.400;2023-04-30T07:04:58;0.00;;;0.00;;
38302;SDS011;24103;42.454;27.400;2023-04-30T07:07:23;0.00;;;0.00;;
38302;SDS011;24103;42.454;27.400;2023-04-30T07:09:49;0.10;;;0.10;;
38302;SDS011;24103;42.454;27.400;2023-04-30T07:12:15;0.00;;;0.00;;
38302;SDS011;24103;42.454;27.400;2023-04-30T07:14:40;0.20;;;0.05;;
38302;SDS011;24103;42.454;27.400;2023-04-30T07:17:06;0.00;;;0.00;;
38302;SDS011;24103;42.454;27.400;2023-04-30T07:19:31;0.00;;;0.00;;
38302;SDS011;24103;42.454;27.400;2023-04-30T07:21:57;0.40;;;0.00;;
38302;SDS011;24103;42.454;27.400;2023-04-30T07:24:22;0.00;;;0.00;;
38302;SDS011;24103;42.454;27.400;2023-04-30T07:26:47;0.00;;;0.00;;
38302;SDS011;24103;42.454;27.400;2023-04-30T07:29:13;0.00;;;0.00;;
38302;SDS011;24103;42.454;27.400;2023-04-30T07:31:39;0.00;;;0.00;;
38302;SDS011;24103;42.454;27.400;2023-04-30T07:34:04;0.00;;;0.00;;
38302;SDS011;24103;42.454;27.400;2023-04-30T07:36:29;0.00;;;0.00;;
38302;SDS011;24103;42.454;27.400;2023-04-30T07:38:55;0.00;;;0.00;;
38302;SDS011;24103;42.454;27.400;2023-04-30T07:41:21;0.00;;;0.00;;
38302;SDS011;24103;42.454;27.400;2023-04-30T07:43:46;0.00;;;0.00;;
38302;SDS011;24103;42.454;27.400;2023-04-30T07:46:12;0.00;;;0.00;;
38302;SDS011;24103;42.454;27.400;2023-04-30T07:48:37;0.10;;;0.10;;
38302;SDS011;24103;42.454;27.400;2023-04-30T07:51:03;0.03;;;0.00;;
38302;SDS011;24103;42.454;27.400;2023-04-30T07:53:29;0.03;;;0.03;;
38302;SDS011;24103;42.454;27.400;2023-04-30T07:55:54;0.00;;;0.00;;
38302;SDS011;24103;42.454;27.400;2023-04-30T07:58:20;0.00;;;0.00;;
38302;SDS011;24103;42.454;27.400;2023-04-30T08:00:45;0.00;;;0.00;;
38302;SDS011;24103;42.454;27.400;2023-04-30T08:03:11;0.03;;;0.03;;
38302;SDS011;24103;42.454;27.400;2023-04-30T08:05:36;0.00;;;0.00;;
38302;SDS011;24103;42.454;27.400;2023-04-30T08:08:02;0.00;;;0.00;;
38302;SDS011;24103;42.454;27.400;2023-04-30T08:10:27;0.00;;;0.00;;
38302;SDS011;24103;42.454;27.400;2023-04-30T08:12:53;0.00;;;0.00;;
38302;SDS011;24103;42.454;27.400;2023-04-30T08:15:18;0.10;;;0.10;;
38302;SDS011;24103;42.454;27.400;2023-04-30T08:17:50;0.10;;;0.10;;
38302;SDS011;24103;42.454;27.400;2023-04-30T08:20:16;0.10;;;0.10;;
38302;SDS011;24103;42.454;27.400;2023-04-30T08:22:42;0.00;;;0.00;;
38302;SDS011;24103;42.454;27.400;2023-04-30T08:25:11;0.00;;;0.00;;
38302;SDS011;24103;42.454;27.400;2023-04-30T08:27:37;0.13;;;0.10;;
38302;SDS011;24103;42.454;27.400;2023-04-30T08:30:03;0.05;;;0.05;;
38302;SDS011;24103;42.454;27.400;2023-04-30T08:32:32;0.00;;;0.00;;
38302;SDS011;24103;42.454;27.400;2023-04-30T08:35:00;0.10;;;0.10;;
38302;SDS011;24103;42.454;27.400;2023-04-30T08:37:26;0.10;;;0.10;;
38302;SDS011;24103;42.454;27.400;2023-04-30T08:39:51;0.10;;;0.10;;
38302;SDS011;24103;42.454;27.400;2023-04-30T08:42:17;0.10;;;0.10;;
38302;SDS011;24103;42.454;27.400;2023-04-30T08:44:45;0.10;;;0.10;;
38302;SDS011;24103;42.454;27.400;2023-04-30T08:47:12;0.00;;;0.00;;
38302;SDS011;24103;42.454;27.400;2023-04-30T08:49:38;0.10;;;0.10;;
38302;SDS011;24103;42.454;27.400;2023-04-30T08:52:05;0.17;;;0.17;;
38302;SDS011;24103;42.454;27.400;2023-04-30T08:54:30;0.00;;;0.00;;
38302;SDS011;24103;42.454;27.400;2023-04-30T08:56:57;0.10;;;0.10;;
38302;SDS011;24103;42.454;27.400;2023-04-30T08:59:23;0.10;;;0.10;;
38302;SDS011;24103;42.454;27.400;2023-04-30T09:01:48;0.10;;;0.10;;
38302;SDS011;24103;42.454;27.400;2023-04-30T09:04:14;0.10;;;0.10;;
38302;SDS011;24103;42.454;27.400;2023-04-30T09:06:39;0.10;;;0.10;;
38302;SDS011;24103;42.454;27.400;2023-04-30T09:09:10;0.10;;;0.10;;
38302;SDS011;24103;42.454;27.400;2023-04-30T09:11:37;0.10;;;0.10;;
38302;SDS011;24103;42.454;27.400;2023-04-30T09:14:03;0.10;;;0.10;;
38302;SDS011;24103;42.454;27.400;2023-04-30T09:16:29;0.10;;;0.10;;
38302;SDS011;24103;42.454;27.400;2023-04-30T09:19:20;0.00;;;0.00;;
38302;SDS011;24103;42.454;27.400;2023-04-30T09:21:54;0.30;;;0.20;;
38302;SDS011;24103;42.454;27.400;2023-04-30T09:24:21;0.10;;;0.10;;
38302;SDS011;24103;42.454;27.400;2023-04-30T09:26:47;0.10;;;0.10;;
38302;SDS011;24103;42.454;27.400;2023-04-30T09:29:12;0.10;;;0.10;;
38302;SDS011;24103;42.454;27.400;2023-04-30T09:31:40;0.10;;;0.10;;
38302;SDS011;24103;42.454;27.400;2023-04-30T09:34:08;0.00;;;0.00;;
38302;SDS011;24103;42.454;27.400;2023-04-30T09:36:34;0.10;;;0.10;;
38302;SDS011;24103;42.454;27.400;2023-04-30T09:39:09;0.20;;;0.10;;
38302;SDS011;24103;42.454;27.400;2023-04-30T09:41:37;0.10;;;0.10;;
38302;SDS011;24103;42.454;27.400;2023-04-30T09:44:04;0.10;;;0.10;;
38302;SDS011;24103;42.454;27.400;2023-04-30T09:46:30;0.20;;;0.20;;
38302;SDS011;24103;42.454;27.400;2023-04-30T09:48:58;0.10;;;0.10;;
38302;SDS011;24103;42.454;27.400;2023-04-30T09:51:25;0.10;;;0.10;;
38302;SDS011;24103;42.454;27.400;2023-04-30T09:53:51;0.03;;;0.03;;
38302;SDS011;24103;42.454;27.400;2023-04-30T09:56:21;0.57;;;0.20;;
38302;SDS011;24103;42.454;27.400;2023-04-30T09:58:49;0.10;;;0.10;;
38302;SDS011;24103;42.454;27.400;2023-04-30T10:01:16;0.15;;;0.15;;
38302;SDS011;24103;42.454;27.400;2023-04-30T10:03:42;0.10;;;0.10;;
38302;SDS011;24103;42.454;27.400;2023-04-30T10:06:11;0.10;;;0.10;;
38302;SDS011;24103;42.454;27.400;2023-04-30T10:08:41;0.00;;;0.00;;
38302;SDS011;24103;42.454;27.400;2023-04-30T10:11:08;0.10;;;0.10;;
38302;SDS011;24103;42.454;27.400;2023-04-30T10:13:49;0.20;;;0.20;;
38302;SDS011;24103;42.454;27.400;2023-04-30T10:16:36;0.17;;;0.17;;
38302;SDS011;24103;42.454;27.400;2023-04-30T10:19:13;0.00;;;0.00;;
38302;SDS011;24103;42.454;27.400;2023-04-30T10:21:42;0.03;;;0.03;;
38302;SDS011;24103;42.454;27.400;2023-04-30T10:24:11;0.10;;;0.10;;
38302;SDS011;24103;42.454;27.400;2023-04-30T10:26:37;0.00;;;0.00;;
38302;SDS011;24103;42.454;27.400;2023-04-30T10:29:05;0.10;;;0.10;;
38302;SDS011;24103;42.454;27.400;2023-04-30T10:31:31;0.10;;;0.10;;
38302;SDS011;24103;42.454;27.400;2023-04-30T10:36:32;0.10;;;0.10;;
38302;SDS011;24103;42.454;27.400;2023-04-30T10:39:05;0.00;;;0.00;;
38302;SDS011;24103;42.454;27.400;2023-04-30T10:41:31;0.10;;;0.10;;
38302;SDS011;24103;42.454;27.400;2023-04-30T10:43:57;0.10;;;0.10;;
38302;SDS011;24103;42.454;27.400;2023-04-30T10:46:25;0.22;;;0.20;;
38302;SDS011;24103;42.454;27.400;2023-04-30T10:48:52;0.00;;;0.00;;
38302;SDS011;24103;42.454;27.400;2023-04-30T10:51:21;0.10;;;0.10;;
38302;SDS011;24103;42.454;27.400;2023-04-30T10:53:48;0.10;;;0.10;;
38302;SDS011;24103;42.454;27.400;2023-04-30T10:56:27;0.05;;;0.05;;
38302;SDS011;24103;42.454;27.400;2023-04-30T10:58:57;0.20;;;0.20;;
38302;SDS011;24103;42.454;27.400;2023-04-30T11:01:23;0.00;;;0.00;;
38302;SDS011;24103;42.454;27.400;2023-04-30T11:04:05;0.10;;;0.10;;
38302;SDS011;24103;42.454;27.400;2023-04-30T11:09:16;0.10;;;0.10;;
38302;SDS011;24103;42.454;27.400;2023-04-30T11:11:45;0.10;;;0.10;;
38302;SDS011;24103;42.454;27.400;2023-04-30T11:14:11;0.08;;;0.08;;
38302;SDS011;24103;42.454;27.400;2023-04-30T11:16:47;0.10;;;0.10;;
38302;SDS011;24103;42.454;27.400;2023-04-30T11:19:13;0.00;;;0.00;;
38302;SDS011;24103;42.454;27.400;2023-04-30T11:21:40;0.10;;;0.10;;
38302;SDS011;24103;42.454;27.400;2023-04-30T11:24:06;0.00;;;0.00;;
38302;SDS011;24103;42.454;27.400;2023-04-30T11:29:32;0.10;;;0.10;;
38302;SDS011;24103;42.454;27.400;2023-04-30T11:32:02;0.00;;;0.00;;
38302;SDS011;24103;42.454;27.400;2023-04-30T11:34:29;0.08;;;0.08;;
38302;SDS011;24103;42.454;27.400;2023-04-30T11:36:57;0.10;;;0.10;;
38302;SDS011;24103;42.454;27.400;2023-04-30T11:39:24;0.10;;;0.10;;
38302;SDS011;24103;42.454;27.400;2023-04-30T11:41:52;0.00;;;0.00;;
38302;SDS011;24103;42.454;27.400;2023-04-30T11:44:22;0.10;;;0.00;;
38302;SDS011;24103;42.454;27.400;2023-04-30T11:46:50;0.10;;;0.10;;
38302;SDS011;24103;42.454;27.400;2023-04-30T11:49:15;0.00;;;0.00;;
38302;SDS011;24103;42.454;27.400;2023-04-30T11:51:41;0.05;;;0.05;;
38302;SDS011;24103;42.454;27.400;2023-04-30T11:54:07;0.10;;;0.10;;
38302;SDS011;24103;42.454;27.400;2023-04-30T11:56:36;0.10;;;0.10;;
38302;SDS011;24103;42.454;27.400;2023-04-30T11:59:07;0.03;;;0.03;;
38302;SDS011;24103;42.454;27.400;2023-04-30T12:01:34;0.08;;;0.05;;
38302;SDS011;24103;42.454;27.400;2023-04-30T12:04:00;0.10;;;0.10;;
38302;SDS011;24103;42.454;27.400;2023-04-30T12:06:28;0.10;;;0.10;;
38302;SDS011;24103;42.454;27.400;2023-04-30T12:08:55;0.10;;;0.10;;
38302;SDS011;24103;42.454;27.400;2023-04-30T12:11:28;0.05;;;0.05;;
38302;SDS011;24103;42.454;27.400;2023-04-30T12:13:56;0.00;;;0.00;;
38302;SDS011;24103;42.454;27.400;2023-04-30T12:16:27;0.10;;;0.10;;
38302;SDS011;24103;42.454;27.400;2023-04-30T12:18:53;0.20;;;0.10;;
38302;SDS011;24103;42.454;27.400;2023-04-30T12:21:20;0.10;;;0.10;;
38302;SDS011;24103;42.454;27.400;2023-04-30T12:23:46;0.00;;;0.00;;
38302;SDS011;24103;42.454;27.400;2023-04-30T12:26:12;0.00;;;0.00;;
38302;SDS011;24103;42.454;27.400;2023-04-30T12:28:37;0.00;;;0.00;;
38302;SDS011;24103;42.454;27.400;2023-04-30T12:31:03;0.08;;;0.08;;
38302;SDS011;24103;42.454;27.400;2023-04-30T12:33:30;0.10;;;0.10;;
38302;SDS011;24103;42.454;27.400;2023-04-30T12:35:56;0.10;;;0.10;;
38302;SDS011;24103;42.454;27.400;2023-04-30T12:38:24;0.00;;;0.00;;
38302;SDS011;24103;42.454;27.400;2023-04-30T12:40:50;0.10;;;0.10;;
38302;SDS011;24103;42.454;27.400;2023-04-30T12:43:16;0.00;;;0.00;;
38302;SDS011;24103;42.454;27.400;2023-04-30T12:45:43;0.17;;;0.10;;
38302;SDS011;24103;42.454;27.400;2023-04-30T12:48:15;0.03;;;0.03;;
38302;SDS011;24103;42.454;27.400;2023-04-30T12:50:40;0.10;;;0.10;;
38302;SDS011;24103;42.454;27.400;2023-04-30T12:53:07;0.05;;;0.05;;
38302;SDS011;24103;42.454;27.400;2023-04-30T12:55:32;0.17;;;0.17;;
38302;SDS011;24103;42.454;27.400;2023-04-30T12:58:06;0.00;;;0.00;;
38302;SDS011;24103;42.454;27.400;2023-04-30T13:03:12;0.10;;;0.10;;
38302;SDS011;24103;42.454;27.400;2023-04-30T13:05:44;0.10;;;0.10;;
38302;SDS011;24103;42.454;27.400;2023-04-30T13:08:12;0.00;;;0.00;;
38302;SDS011;24103;42.454;27.400;2023-04-30T13:10:38;0.10;;;0.10;;
38302;SDS011;24103;42.454;27.400;2023-04-30T13:13:03;0.17;;;0.13;;
38302;SDS011;24103;42.454;27.400;2023-04-30T13:15:29;0.00;;;0.00;;
38302;SDS011;24103;42.454;27.400;2023-04-30T13:17:54;0.08;;;0.08;;
38302;SDS011;24103;42.454;27.400;2023-04-30T13:20:20;0.00;;;0.00;;
38302;SDS011;24103;42.454;27.400;2023-04-30T13:22:46;0.00;;;0.00;;
38302;SDS011;24103;42.454;27.400;2023-04-30T13:25:11;0.00;;;0.00;;
38302;SDS011;24103;42.454;27.400;2023-04-30T13:27:37;0.00;;;0.00;;
38302;SDS011;24103;42.454;27.400;2023-04-30T13:30:02;0.10;;;0.10;;
38302;SDS011;24103;42.454;27.400;2023-04-30T13:32:28;0.00;;;0.00;;
38302;SDS011;24103;42.454;27.400;2023-04-30T13:34:54;0.00;;;0.00;;
38302;SDS011;24103;42.454;27.400;2023-04-30T13:37:20;0.13;;;0.13;;
38302;SDS011;24103;42.454;27.400;2023-04-30T13:39:46;0.10;;;0.10;;
38302;SDS011;24103;42.454;27.400;2023-04-30T13:42:15;0.20;;;0.20;;
38302;SDS011;24103;42.454;27.400;2023-04-30T13:44:41;0.15;;;0.15;;
38302;SDS011;24103;42.454;27.400;2023-04-30T13:47:09;0.20;;;0.20;;
38302;SDS011;24103;42.454;27.400;2023-04-30T13:49:35;0.10;;;0.10;;
38302;SDS011;24103;42.454;27.400;2023-04-30T13:52:02;0.20;;;0.20;;
38302;SDS011;24103;42.454;27.400;2023-04-30T13:54:28;0.10;;;0.10;;
38302;SDS011;24103;42.454;27.400;2023-04-30T13:56:53;0.10;;;0.10;;
38302;SDS011;24103;42.454;27.400;2023-04-30T13:59:19;0.10;;;0.10;;
38302;SDS011;24103;42.454;27.400;2023-04-30T14:01:45;0.20;;;0.20;;
38302;SDS011;24103;42.454;27.400;2023-04-30T14:04:10;0.10;;;0.10;;
38302;SDS011;24103;42.454;27.400;2023-04-30T14:06:36;0.17;;;0.17;;
38302;SDS011;24103;42.454;27.400;2023-04-30T14:09:02;0.10;;;0.10;;
38302;SDS011;24103;42.454;27.400;2023-04-30T14:11:28;0.10;;;0.10;;
38302;SDS011;24103;42.454;27.400;2023-04-30T14:13:53;0.10;;;0.10;;
38302;SDS011;24103;42.454;27.400;2023-04-30T14:16:19;0.10;;;0.10;;
38302;SDS011;24103;42.454;27.400;2023-04-30T14:18:45;0.20;;;0.13;;
38302;SDS011;24103;42.454;27.400;2023-04-30T14:21:11;0.13;;;0.13;;
38302;SDS011;24103;42.454;27.400;2023-04-30T14:23:37;0.17;;;0.17;;
38302;SDS011;24103;42.454;27.400;2023-04-30T14:26:03;0.20;;;0.20;;
38302;SDS011;24103;42.454;27.400;2023-04-30T14:28:29;0.10;;;0.10;;
38302;SDS011;24103;42.454;27.400;2023-04-30T14:30:54;0.10;;;0.10;;
38302;SDS011;24103;42.454;27.400;2023-04-30T14:33:20;0.15;;;0.15;;
38302;SDS011;24103;42.454;27.400;2023-04-30T14:35:45;0.10;;;0.10;;
38302;SDS011;24103;42.454;27.400;2023-04-30T14:38:11;0.10;;;0.10;;
38302;SDS011;24103;42.454;27.400;2023-04-30T14:40:37;0.10;;;0.10;;
38302;SDS011;24103;42.454;27.400;2023-04-30T14:43:03;0.10;;;0.10;;
38302;SDS011;24103;42.454;27.400;2023-04-30T14:45:28;0.10;;;0.10;;
38302;SDS011;24103;42.454;27.400;2023-04-30T14:47:54;0.05;;;0.05;;
38302;SDS011;24103;42.454;27.400;2023-04-30T14:50:19;0.20;;;0.20;;
38302;SDS011;24103;42.454;27.400;2023-04-30T14:52:45;0.10;;;0.10;;
38302;SDS011;24103;42.454;27.400;2023-04-30T14:55:11;0.10;;;0.10;;
38302;SDS011;24103;42.454;27.400;2023-04-30T14:57:36;0.10;;;0.10;;
38302;SDS011;24103;42.454;27.400;2023-04-30T15:00:02;0.10;;;0.10;;